sensor_id;sensor_type;location;lat;lon;timestamp;temperature;humidity
53152;DHT22;39234;53.158;6.322;2023-06-14T00:01:48;14.70;99.90
53152;DHT22;39234;53.158;6.322;2023-06-14T00:04:14;14.80;99.90
53152;DHT22;39234;53.158;6.322;2023-06-14T00:06:44;14.50;99.90
53152;DHT22;39234;53.158;6.322;2023-06-14T00:09:11;14.60;99.90
53152;DHT22;39234;53.158;6.322;2023-06-14T00:11:43;14.40;99.90
53152;DHT22;39234;53.158;6.322;2023-06-14T00:14:09;14.70;99.90
53152;DHT22;39234;53.158;6.322;2023-06-14T00:16:35;14.50;99.90
53152;DHT22;39234;53.158;6.322;2023-06-14T00:19:01;14.50;99.90
53152;DHT22;39234;53.158;6.322;2023-06-14T00:21:29;14.40;99.90
53152;DHT22;39234;53.158;6.322;2023-06-14T00:23:56;14.60;99.90
53152;DHT22;39234;53.158;6.322;2023-06-14T00:26:22;14.50;99.90
53152;DHT22;39234;53.158;6.322;2023-06-14T00:28:48;14.20;99.90
53152;DHT22;39234;53.158;6.322;2023-06-14T00:31:14;14.30;99.90
53152;DHT22;39234;53.158;6.322;2023-06-14T00:33:40;14.40;99.90
53152;DHT22;39234;53.158;6.322;2023-06-14T00:36:05;14.20;99.90
53152;DHT22;39234;53.158;6.322;2023-06-14T00:38:31;14.10;99.90
53152;DHT22;39234;53.158;6.322;2023-06-14T00:40:57;14.30;99.90
53152;DHT22;39234;53.158;6.322;2023-06-14T00:43:23;14.10;99.90
53152;DHT22;39234;53.158;6.322;2023-06-14T00:45:48;14.20;99.90
53152;DHT22;39234;53.158;6.322;2023-06-14T00:48:15;14.20;99.90
53152;DHT22;39234;53.158;6.322;2023-06-14T00:50:41;14.10;99.90
53152;DHT22;39234;53.158;6.322;2023-06-14T00:53:07;14.30;99.90
53152;DHT22;39234;53.158;6.322;2023-06-14T00:55:33;14.10;99.90
53152;DHT22;39234;53.158;6.322;2023-06-14T00:57:59;14.00;99.90
53152;DHT22;39234;53.158;6.322;2023-06-14T01:00:25;14.00;99.90
53152;DHT22;39234;53.158;6.322;2023-06-14T01:02:51;13.90;99.90
53152;DHT22;39234;53.158;6.322;2023-06-14T01:05:17;14.20;99.90
53152;DHT22;39234;53.158;6.322;2023-06-14T01:08:00;14.10;99.90
53152;DHT22;39234;53.158;6.322;2023-06-14T01:13:35;14.00;99.90
53152;DHT22;39234;53.158;6.322;2023-06-14T01:16:02;14.00;99.90
53152;DHT22;39234;53.158;6.322;2023-06-14T01:18:29;13.90;99.90
53152;DHT22;39234;53.158;6.322;2023-06-14T01:20:55;13.80;99.90
53152;DHT22;39234;53.158;6.322;2023-06-14T01:23:22;13.90;99.90
53152;DHT22;39234;53.158;6.322;2023-06-14T01:25:49;13.80;99.90
53152;DHT22;39234;53.158;6.322;2023-06-14T01:28:20;13.70;99.90
53152;DHT22;39234;53.158;6.322;2023-06-14T01:30:57;13.70;99.90
53152;DHT22;39234;53.158;6.322;2023-06-14T01:33:27;13.80;99.90
53152;DHT22;39234;53.158;6.322;2023-06-14T01:35:55;13.50;99.90
53152;DHT22;39234;53.158;6.322;2023-06-14T01:38:26;13.50;99.90
53152;DHT22;39234;53.158;6.322;2023-06-14T01:40:54;13.70;99.90
53152;DHT22;39234;53.158;6.322;2023-06-14T01:43:21;13.30;99.90
53152;DHT22;39234;53.158;6.322;2023-06-14T01:45:48;13.40;99.90
53152;DHT22;39234;53.158;6.322;2023-06-14T01:48:17;12.10;99.90
53152;DHT22;39234;53.158;6.322;2023-06-14T01:50:43;13.40;99.90
53152;DHT22;39234;53.158;6.322;2023-06-14T01:53:10;13.40;99.90
53152;DHT22;39234;53.158;6.322;2023-06-14T01:55:36;13.40;99.90
53152;DHT22;39234;53.158;6.322;2023-06-14T01:58:09;13.20;99.90
53152;DHT22;39234;53.158;6.322;2023-06-14T02:00:35;13.10;99.90
53152;DHT22;39234;53.158;6.322;2023-06-14T02:03:01;13.20;99.90
53152;DHT22;39234;53.158;6.322;2023-06-14T02:05:29;13.20;99.90
53152;DHT22;39234;53.158;6.322;2023-06-14T02:07:55;13.40;99.90
53152;DHT22;39234;53.158;6.322;2023-06-14T02:10:21;13.20;99.90
53152;DHT22;39234;53.158;6.322;2023-06-14T02:12:47;13.20;99.90
53152;DHT22;39234;53.158;6.322;2023-06-14T02:15:13;13.00;99.90
53152;DHT22;39234;53.158;6.322;2023-06-14T02:17:43;13.10;99.90
53152;DHT22;39234;53.158;6.322;2023-06-14T02:20:09;12.90;99.90
53152;DHT22;39234;53.158;6.322;2023-06-14T02:22:35;13.10;99.90
53152;DHT22;39234;53.158;6.322;2023-06-14T02:25:00;13.10;99.90
53152;DHT22;39234;53.158;6.322;2023-06-14T02:27:26;13.00;99.90
53152;DHT22;39234;53.158;6.322;2023-06-14T02:29:52;12.70;99.90
53152;DHT22;39234;53.158;6.322;2023-06-14T02:32:18;13.10;99.90
53152;DHT22;39234;53.158;6.322;2023-06-14T02:34:43;13.00;99.90
53152;DHT22;39234;53.158;6.322;2023-06-14T02:37:09;13.10;99.90
53152;DHT22;39234;53.158;6.322;2023-06-14T02:39:36;12.90;99.90
53152;DHT22;39234;53.158;6.322;2023-06-14T02:42:02;12.90;99.90
53152;DHT22;39234;53.158;6.322;2023-06-14T02:44:29;12.90;99.90
53152;DHT22;39234;53.158;6.322;2023-06-14T02:46:55;12.70;99.90
53152;DHT22;39234;53.158;6.322;2023-06-14T02:49:22;11.20;99.90
53152;DHT22;39234;53.158;6.322;2023-06-14T02:51:48;12.90;99.90
53152;DHT22;39234;53.158;6.322;2023-06-14T02:54:14;12.80;99.90
53152;DHT22;39234;53.158;6.322;2023-06-14T02:56:39;12.60;99.90
53152;DHT22;39234;53.158;6.322;2023-06-14T02:59:06;12.80;99.90
53152;DHT22;39234;53.158;6.322;2023-06-14T03:01:33;12.80;99.90
53152;DHT22;39234;53.158;6.322;2023-06-14T03:04:09;12.90;99.90
53152;DHT22;39234;53.158;6.322;2023-06-14T03:06:35;12.70;99.90
53152;DHT22;39234;53.158;6.322;2023-06-14T03:09:02;12.70;99.90
53152;DHT22;39234;53.158;6.322;2023-06-14T03:11:32;15.10;99.90
53152;DHT22;39234;53.158;6.322;2023-06-14T03:13:58;12.80;99.90
53152;DHT22;39234;53.158;6.322;2023-06-14T03:16:24;12.90;99.90
53152;DHT22;39234;53.158;6.322;2023-06-14T03:18:51;12.90;99.90
53152;DHT22;39234;53.158;6.322;2023-06-14T03:21:18;12.90;99.90
53152;DHT22;39234;53.158;6.322;2023-06-14T03:23:45;12.90;99.90
53152;DHT22;39234;53.158;6.322;2023-06-14T03:26:10;13.10;99.90
53152;DHT22;39234;53.158;6.322;2023-06-14T03:28:40;13.10;99.90
53152;DHT22;39234;53.158;6.322;2023-06-14T03:31:06;13.50;99.90
53152;DHT22;39234;53.158;6.322;2023-06-14T03:33:32;13.40;99.90
53152;DHT22;39234;53.158;6.322;2023-06-14T03:35:57;13.40;99.90
53152;DHT22;39234;53.158;6.322;2023-06-14T03:38:23;13.50;99.90
53152;DHT22;39234;53.158;6.322;2023-06-14T03:40:49;13.50;99.90
53152;DHT22;39234;53.158;6.322;2023-06-14T03:43:14;13.70;99.90
53152;DHT22;39234;53.158;6.322;2023-06-14T03:45:40;13.60;99.90
53152;DHT22;39234;53.158;6.322;2023-06-14T03:48:06;13.70;99.90
53152;DHT22;39234;53.158;6.322;2023-06-14T03:50:34;13.80;99.90
53152;DHT22;39234;53.158;6.322;2023-06-14T03:53:00;13.50;99.90
53152;DHT22;39234;53.158;6.322;2023-06-14T03:55:27;13.60;99.90
53152;DHT22;39234;53.158;6.322;2023-06-14T03:57:53;12.50;99.90
53152;DHT22;39234;53.158;6.322;2023-06-14T04:00:19;14.00;99.90
53152;DHT22;39234;53.158;6.322;2023-06-14T04:02:45;14.00;99.90
53152;DHT22;39234;53.158;6.322;2023-06-14T04:05:11;14.00;99.90
53152;DHT22;39234;53.158;6.322;2023-06-14T04:07:36;13.90;99.90
53152;DHT22;39234;53.158;6.322;2023-06-14T04:10:11;14.10;99.90
53152;DHT22;39234;53.158;6.322;2023-06-14T04:12:37;14.10;99.90
53152;DHT22;39234;53.158;6.322;2023-06-14T04:15:03;14.10;99.90
53152;DHT22;39234;53.158;6.322;2023-06-14T04:17:31;14.20;99.90
53152;DHT22;39234;53.158;6.322;2023-06-14T04:19:59;14.20;99.90
53152;DHT22;39234;53.158;6.322;2023-06-14T04:22:28;14.20;99.90
53152;DHT22;39234;53.158;6.322;2023-06-14T04:24:54;14.20;99.90
53152;DHT22;39234;53.158;6.322;2023-06-14T04:27:23;14.20;99.90
53152;DHT22;39234;53.158;6.322;2023-06-14T04:29:54;14.50;99.90
53152;DHT22;39234;53.158;6.322;2023-06-14T04:32:28;14.50;99.90
53152;DHT22;39234;53.158;6.322;2023-06-14T04:34:59;14.50;99.90
53152;DHT22;39234;53.158;6.322;2023-06-14T04:37:27;14.60;99.90
53152;DHT22;39234;53.158;6.322;2023-06-14T04:39:57;14.70;99.90
53152;DHT22;39234;53.158;6.322;2023-06-14T04:42:23;14.60;99.90
53152;DHT22;39234;53.158;6.322;2023-06-14T04:44:55;14.70;99.90
53152;DHT22;39234;53.158;6.322;2023-06-14T04:47:21;14.70;99.90
53152;DHT22;39234;53.158;6.322;2023-06-14T04:49:47;14.70;99.90
53152;DHT22;39234;53.158;6.322;2023-06-14T04:52:13;14.80;99.90
53152;DHT22;39234;53.158;6.322;2023-06-14T04:54:39;14.80;99.90
53152;DHT22;39234;53.158;6.322;2023-06-14T04:57:09;14.90;99.90
53152;DHT22;39234;53.158;6.322;2023-06-14T04:59:40;14.70;99.90
53152;DHT22;39234;53.158;6.322;2023-06-14T05:02:06;14.90;99.90
53152;DHT22;39234;53.158;6.322;2023-06-14T05:04:32;15.00;99.90
53152;DHT22;39234;53.158;6.322;2023-06-14T05:06:58;14.10;99.90
53152;DHT22;39234;53.158;6.322;2023-06-14T05:09:24;15.10;99.90
53152;DHT22;39234;53.158;6.322;2023-06-14T05:11:50;15.10;99.90
53152;DHT22;39234;53.158;6.322;2023-06-14T05:14:16;15.30;99.90
53152;DHT22;39234;53.158;6.322;2023-06-14T05:16:43;15.30;99.90
53152;DHT22;39234;53.158;6.322;2023-06-14T05:19:08;15.20;99.90
53152;DHT22;39234;53.158;6.322;2023-06-14T05:21:36;15.30;99.90
53152;DHT22;39234;53.158;6.322;2023-06-14T05:24:02;15.50;99.90
53152;DHT22;39234;53.158;6.322;2023-06-14T05:26:28;15.50;99.90
53152;DHT22;39234;53.158;6.322;2023-06-14T05:28:58;15.40;99.90
53152;DHT22;39234;53.158;6.322;2023-06-14T05:31:25;15.60;99.90
53152;DHT22;39234;53.158;6.322;2023-06-14T05:33:52;15.80;99.90
53152;DHT22;39234;53.158;6.322;2023-06-14T05:36:21;15.80;99.90
53152;DHT22;39234;53.158;6.322;2023-06-14T05:38:47;16.00;99.90
53152;DHT22;39234;53.158;6.322;2023-06-14T05:41:13;16.00;99.90
53152;DHT22;39234;53.158;6.322;2023-06-14T05:43:39;16.00;99.90
53152;DHT22;39234;53.158;6.322;2023-06-14T05:46:05;16.10;99.90
53152;DHT22;39234;53.158;6.322;2023-06-14T05:48:31;16.20;99.90
53152;DHT22;39234;53.158;6.322;2023-06-14T05:50:57;16.20;99.90
53152;DHT22;39234;53.158;6.322;2023-06-14T05:53:23;16.40;99.90
53152;DHT22;39234;53.158;6.322;2023-06-14T05:55:50;16.40;99.90
53152;DHT22;39234;53.158;6.322;2023-06-14T05:58:17;16.50;99.90
53152;DHT22;39234;53.158;6.322;2023-06-14T06:00:43;16.40;99.90
53152;DHT22;39234;53.158;6.322;2023-06-14T06:03:08;16.60;99.90
53152;DHT22;39234;53.158;6.322;2023-06-14T06:05:34;16.70;99.90
53152;DHT22;39234;53.158;6.322;2023-06-14T06:08:00;16.80;99.90
53152;DHT22;39234;53.158;6.322;2023-06-14T06:10:26;16.90;99.90
53152;DHT22;39234;53.158;6.322;2023-06-14T06:12:52;17.10;99.90
53152;DHT22;39234;53.158;6.322;2023-06-14T06:15:20;17.30;99.90
53152;DHT22;39234;53.158;6.322;2023-06-14T06:17:45;17.80;99.90
53152;DHT22;39234;53.158;6.322;2023-06-14T06:20:12;18.30;99.90
53152;DHT22;39234;53.158;6.322;2023-06-14T06:22:38;18.40;99.90
53152;DHT22;39234;53.158;6.322;2023-06-14T06:25:04;18.60;99.90
53152;DHT22;39234;53.158;6.322;2023-06-14T06:27:30;18.60;99.90
53152;DHT22;39234;53.158;6.322;2023-06-14T06:29:56;18.80;99.90
53152;DHT22;39234;53.158;6.322;2023-06-14T06:32:21;18.80;99.90
53152;DHT22;39234;53.158;6.322;2023-06-14T06:34:47;18.80;99.90
53152;DHT22;39234;53.158;6.322;2023-06-14T06:37:13;18.70;99.90
53152;DHT22;39234;53.158;6.322;2023-06-14T06:39:39;19.10;99.90
53152;DHT22;39234;53.158;6.322;2023-06-14T06:42:05;19.00;99.90
53152;DHT22;39234;53.158;6.322;2023-06-14T06:44:32;19.00;99.90
53152;DHT22;39234;53.158;6.322;2023-06-14T06:46:58;19.40;99.90
53152;DHT22;39234;53.158;6.322;2023-06-14T06:49:24;19.40;99.90
53152;DHT22;39234;53.158;6.322;2023-06-14T06:52:00;20.00;99.90
53152;DHT22;39234;53.158;6.322;2023-06-14T06:54:27;20.40;99.90
53152;DHT22;39234;53.158;6.322;2023-06-14T06:56:53;20.70;99.90
53152;DHT22;39234;53.158;6.322;2023-06-14T06:59:19;20.70;99.90
53152;DHT22;39234;53.158;6.322;2023-06-14T07:01:44;20.50;99.90
53152;DHT22;39234;53.158;6.322;2023-06-14T07:04:10;20.70;99.90
53152;DHT22;39234;53.158;6.322;2023-06-14T07:06:36;20.70;99.90
53152;DHT22;39234;53.158;6.322;2023-06-14T07:09:03;20.80;99.90
53152;DHT22;39234;53.158;6.322;2023-06-14T07:11:30;21.10;99.90
53152;DHT22;39234;53.158;6.322;2023-06-14T07:13:56;22.00;99.90
53152;DHT22;39234;53.158;6.322;2023-06-14T07:16:22;23.10;99.90
53152;DHT22;39234;53.158;6.322;2023-06-14T07:18:48;23.80;99.90
53152;DHT22;39234;53.158;6.322;2023-06-14T07:21:14;24.40;99.90
53152;DHT22;39234;53.158;6.322;2023-06-14T07:23:40;25.40;99.90
53152;DHT22;39234;53.158;6.322;2023-06-14T07:26:06;26.30;99.90
53152;DHT22;39234;53.158;6.322;2023-06-14T07:28:32;26.30;99.90
53152;DHT22;39234;53.158;6.322;2023-06-14T07:30:57;26.80;99.90
53152;DHT22;39234;53.158;6.322;2023-06-14T07:33:23;27.40;99.90
53152;DHT22;39234;53.158;6.322;2023-06-14T07:35:49;27.70;99.50
53152;DHT22;39234;53.158;6.322;2023-06-14T07:38:15;28.30;99.30
53152;DHT22;39234;53.158;6.322;2023-06-14T07:40:41;28.50;99.10
53152;DHT22;39234;53.158;6.322;2023-06-14T07:43:06;28.40;98.20
53152;DHT22;39234;53.158;6.322;2023-06-14T07:45:32;29.10;97.80
53152;DHT22;39234;53.158;6.322;2023-06-14T07:47:58;29.50;97.20
53152;DHT22;39234;53.158;6.322;2023-06-14T07:50:23;29.40;97.00
53152;DHT22;39234;53.158;6.322;2023-06-14T07:52:49;29.70;97.40
53152;DHT22;39234;53.158;6.322;2023-06-14T07:55:15;29.70;96.20
53152;DHT22;39234;53.158;6.322;2023-06-14T07:57:41;29.70;95.80
53152;DHT22;39234;53.158;6.322;2023-06-14T08:00:08;29.50;95.90
53152;DHT22;39234;53.158;6.322;2023-06-14T08:02:36;29.10;95.10
53152;DHT22;39234;53.158;6.322;2023-06-14T08:05:02;28.90;95.30
53152;DHT22;39234;53.158;6.322;2023-06-14T08:07:28;28.40;95.50
53152;DHT22;39234;53.158;6.322;2023-06-14T08:09:53;28.50;94.70
53152;DHT22;39234;53.158;6.322;2023-06-14T08:12:19;28.80;95.30
53152;DHT22;39234;53.158;6.322;2023-06-14T08:14:45;28.90;95.30
53152;DHT22;39234;53.158;6.322;2023-06-14T08:17:10;28.50;95.50
53152;DHT22;39234;53.158;6.322;2023-06-14T08:19:36;28.90;95.50
53152;DHT22;39234;53.158;6.322;2023-06-14T08:22:02;28.90;95.60
53152;DHT22;39234;53.158;6.322;2023-06-14T08:24:29;29.60;95.70
53152;DHT22;39234;53.158;6.322;2023-06-14T08:26:55;29.30;94.60
53152;DHT22;39234;53.158;6.322;2023-06-14T08:29:22;29.30;95.50
53152;DHT22;39234;53.158;6.322;2023-06-14T08:31:48;29.20;94.60
53152;DHT22;39234;53.158;6.322;2023-06-14T08:34:14;28.90;95.00
53152;DHT22;39234;53.158;6.322;2023-06-14T08:36:40;28.50;94.90
53152;DHT22;39234;53.158;6.322;2023-06-14T08:39:06;28.60;95.00
53152;DHT22;39234;53.158;6.322;2023-06-14T08:41:34;28.50;94.90
53152;DHT22;39234;53.158;6.322;2023-06-14T08:44:01;28.60;95.40
53152;DHT22;39234;53.158;6.322;2023-06-14T08:46:26;28.60;95.00
53152;DHT22;39234;53.158;6.322;2023-06-14T08:48:55;28.30;94.60
53152;DHT22;39234;53.158;6.322;2023-06-14T08:51:25;28.10;94.90
53152;DHT22;39234;53.158;6.322;2023-06-14T08:53:54;29.70;95.70
53152;DHT22;39234;53.158;6.322;2023-06-14T08:56:25;28.20;95.00
53152;DHT22;39234;53.158;6.322;2023-06-14T08:58:53;27.70;94.70
53152;DHT22;39234;53.158;6.322;2023-06-14T09:01:23;27.30;95.00
53152;DHT22;39234;53.158;6.322;2023-06-14T09:03:50;27.10;96.00
53152;DHT22;39234;53.158;6.322;2023-06-14T09:06:16;27.10;95.50
53152;DHT22;39234;53.158;6.322;2023-06-14T09:08:45;27.00;95.50
53152;DHT22;39234;53.158;6.322;2023-06-14T09:11:16;26.60;95.30
53152;DHT22;39234;53.158;6.322;2023-06-14T09:13:45;26.40;95.70
53152;DHT22;39234;53.158;6.322;2023-06-14T09:16:11;25.90;95.70
53152;DHT22;39234;53.158;6.322;2023-06-14T09:18:37;23.70;95.80
53152;DHT22;39234;53.158;6.322;2023-06-14T09:21:06;25.40;97.10
53152;DHT22;39234;53.158;6.322;2023-06-14T09:23:37;24.90;97.80
53152;DHT22;39234;53.158;6.322;2023-06-14T09:26:11;24.70;97.20
53152;DHT22;39234;53.158;6.322;2023-06-14T09:28:41;24.60;98.40
53152;DHT22;39234;53.158;6.322;2023-06-14T09:31:08;26.90;99.40
53152;DHT22;39234;53.158;6.322;2023-06-14T09:33:35;24.50;97.90
53152;DHT22;39234;53.158;6.322;2023-06-14T09:36:01;24.40;98.40
53152;DHT22;39234;53.158;6.322;2023-06-14T09:38:27;24.30;98.50
53152;DHT22;39234;53.158;6.322;2023-06-14T09:40:54;24.50;98.20
53152;DHT22;39234;53.158;6.322;2023-06-14T09:43:21;24.60;98.10
53152;DHT22;39234;53.158;6.322;2023-06-14T09:45:48;24.10;97.80
53152;DHT22;39234;53.158;6.322;2023-06-14T09:48:14;24.10;98.10
53152;DHT22;39234;53.158;6.322;2023-06-14T09:50:45;24.10;98.10
53152;DHT22;39234;53.158;6.322;2023-06-14T09:53:12;24.00;98.20
53152;DHT22;39234;53.158;6.322;2023-06-14T09:55:40;24.00;98.20
53152;DHT22;39234;53.158;6.322;2023-06-14T09:58:08;21.90;98.00
53152;DHT22;39234;53.158;6.322;2023-06-14T10:00:36;24.40;98.90
53152;DHT22;39234;53.158;6.322;2023-06-14T10:03:19;24.20;98.80
53152;DHT22;39234;53.158;6.322;2023-06-14T10:05:47;24.20;98.70
53152;DHT22;39234;53.158;6.322;2023-06-14T10:08:15;24.20;98.90
53152;DHT22;39234;53.158;6.322;2023-06-14T10:10:43;24.40;99.10
53152;DHT22;39234;53.158;6.322;2023-06-14T10:13:09;24.50;98.50
53152;DHT22;39234;53.158;6.322;2023-06-14T10:16:02;24.30;98.60
53152;DHT22;39234;53.158;6.322;2023-06-14T10:18:33;24.50;98.30
53152;DHT22;39234;53.158;6.322;2023-06-14T10:21:32;24.40;98.80
53152;DHT22;39234;53.158;6.322;2023-06-14T10:24:03;24.40;98.00
53152;DHT22;39234;53.158;6.322;2023-06-14T10:26:30;24.40;98.40
53152;DHT22;39234;53.158;6.322;2023-06-14T10:28:58;24.80;98.70
53152;DHT22;39234;53.158;6.322;2023-06-14T10:31:44;24.80;98.30
53152;DHT22;39234;53.158;6.322;2023-06-14T10:34:11;25.00;97.50
53152;DHT22;39234;53.158;6.322;2023-06-14T10:36:40;25.30;98.20
53152;DHT22;39234;53.158;6.322;2023-06-14T10:39:17;25.00;97.80
53152;DHT22;39234;53.158;6.322;2023-06-14T10:41:54;24.80;97.70
53152;DHT22;39234;53.158;6.322;2023-06-14T10:46:46;25.10;98.60
53152;DHT22;39234;53.158;6.322;2023-06-14T10:49:16;24.90;98.00
53152;DHT22;39234;53.158;6.322;2023-06-14T10:51:45;25.10;98.20
53152;DHT22;39234;53.158;6.322;2023-06-14T10:54:20;25.20;97.70
53152;DHT22;39234;53.158;6.322;2023-06-14T10:56:50;25.00;97.40
53152;DHT22;39234;53.158;6.322;2023-06-14T10:59:16;25.10;97.90
53152;DHT22;39234;53.158;6.322;2023-06-14T11:04:51;24.90;98.00
53152;DHT22;39234;53.158;6.322;2023-06-14T11:12:48;24.80;97.40
53152;DHT22;39234;53.158;6.322;2023-06-14T11:15:14;25.10;99.00
53152;DHT22;39234;53.158;6.322;2023-06-14T11:17:50;25.20;98.60
53152;DHT22;39234;53.158;6.322;2023-06-14T11:20:17;25.30;97.60
53152;DHT22;39234;53.158;6.322;2023-06-14T11:22:43;25.10;97.60
53152;DHT22;39234;53.158;6.322;2023-06-14T11:25:09;25.10;97.90
53152;DHT22;39234;53.158;6.322;2023-06-14T11:27:35;25.40;97.90
53152;DHT22;39234;53.158;6.322;2023-06-14T11:30:01;25.40;98.60
53152;DHT22;39234;53.158;6.322;2023-06-14T11:32:27;25.30;97.50
53152;DHT22;39234;53.158;6.322;2023-06-14T11:34:53;25.70;97.90
53152;DHT22;39234;53.158;6.322;2023-06-14T11:37:19;25.50;98.00
53152;DHT22;39234;53.158;6.322;2023-06-14T11:39:45;25.30;97.80
53152;DHT22;39234;53.158;6.322;2023-06-14T11:42:15;25.40;98.20
53152;DHT22;39234;53.158;6.322;2023-06-14T11:44:41;25.60;97.40
53152;DHT22;39234;53.158;6.322;2023-06-14T11:47:07;25.60;97.70
53152;DHT22;39234;53.158;6.322;2023-06-14T11:49:36;25.60;97.50
53152;DHT22;39234;53.158;6.322;2023-06-14T11:52:02;25.50;97.10
53152;DHT22;39234;53.158;6.322;2023-06-14T11:54:28;25.50;97.60
53152;DHT22;39234;53.158;6.322;2023-06-14T11:56:54;25.30;97.20
53152;DHT22;39234;53.158;6.322;2023-06-14T11:59:20;25.00;97.20
53152;DHT22;39234;53.158;6.322;2023-06-14T12:01:47;25.20;96.90
53152;DHT22;39234;53.158;6.322;2023-06-14T12:04:13;25.00;97.30
53152;DHT22;39234;53.158;6.322;2023-06-14T12:06:39;25.10;97.30
53152;DHT22;39234;53.158;6.322;2023-06-14T12:09:06;25.00;97.10
53152;DHT22;39234;53.158;6.322;2023-06-14T12:11:36;24.90;97.50
53152;DHT22;39234;53.158;6.322;2023-06-14T12:14:05;25.10;97.90
53152;DHT22;39234;53.158;6.322;2023-06-14T12:16:33;25.30;97.80
53152;DHT22;39234;53.158;6.322;2023-06-14T12:19:16;24.90;96.60
53152;DHT22;39234;53.158;6.322;2023-06-14T12:21:42;24.90;97.30
53152;DHT22;39234;53.158;6.322;2023-06-14T12:24:09;24.90;97.10
53152;DHT22;39234;53.158;6.322;2023-06-14T12:26:41;24.90;97.00
53152;DHT22;39234;53.158;6.322;2023-06-14T12:29:08;24.70;96.80
53152;DHT22;39234;53.158;6.322;2023-06-14T12:31:34;24.70;97.30
53152;DHT22;39234;53.158;6.322;2023-06-14T12:34:00;24.50;97.10
53152;DHT22;39234;53.158;6.322;2023-06-14T12:36:26;24.40;97.70
53152;DHT22;39234;53.158;6.322;2023-06-14T12:38:52;24.80;97.40
53152;DHT22;39234;53.158;6.322;2023-06-14T12:41:22;24.90;97.50
53152;DHT22;39234;53.158;6.322;2023-06-14T12:43:48;25.00;98.00
53152;DHT22;39234;53.158;6.322;2023-06-14T12:46:14;25.30;97.00
53152;DHT22;39234;53.158;6.322;2023-06-14T12:48:39;25.30;96.60
53152;DHT22;39234;53.158;6.322;2023-06-14T12:51:05;25.40;96.90
53152;DHT22;39234;53.158;6.322;2023-06-14T12:53:31;25.20;96.40
53152;DHT22;39234;53.158;6.322;2023-06-14T12:55:56;25.10;96.70
53152;DHT22;39234;53.158;6.322;2023-06-14T12:58:22;25.10;96.80
53152;DHT22;39234;53.158;6.322;2023-06-14T13:00:49;25.10;96.90
53152;DHT22;39234;53.158;6.322;2023-06-14T13:03:15;25.20;97.20
53152;DHT22;39234;53.158;6.322;2023-06-14T13:05:41;25.10;96.60
53152;DHT22;39234;53.158;6.322;2023-06-14T13:08:08;26.10;96.80
53152;DHT22;39234;53.158;6.322;2023-06-14T13:10:34;24.90;96.70
53152;DHT22;39234;53.158;6.322;2023-06-14T13:13:00;24.90;97.10
53152;DHT22;39234;53.158;6.322;2023-06-14T13:15:26;24.60;96.40
53152;DHT22;39234;53.158;6.322;2023-06-14T13:17:52;24.20;96.30
53152;DHT22;39234;53.158;6.322;2023-06-14T13:20:18;24.10;97.10
53152;DHT22;39234;53.158;6.322;2023-06-14T13:22:44;24.00;97.00
53152;DHT22;39234;53.158;6.322;2023-06-14T13:25:10;24.30;97.60
53152;DHT22;39234;53.158;6.322;2023-06-14T13:27:35;24.10;97.20
53152;DHT22;39234;53.158;6.322;2023-06-14T13:30:02;24.40;97.60
53152;DHT22;39234;53.158;6.322;2023-06-14T13:32:28;24.40;97.60
53152;DHT22;39234;53.158;6.322;2023-06-14T13:34:54;25.10;97.80
53152;DHT22;39234;53.158;6.322;2023-06-14T13:37:20;25.20;97.40
53152;DHT22;39234;53.158;6.322;2023-06-14T13:39:45;25.30;96.90
53152;DHT22;39234;53.158;6.322;2023-06-14T13:42:11;25.10;96.40
53152;DHT22;39234;53.158;6.322;2023-06-14T13:44:37;24.80;96.20
53152;DHT22;39234;53.158;6.322;2023-06-14T13:47:03;24.50;96.70
53152;DHT22;39234;53.158;6.322;2023-06-14T13:49:29;24.40;96.70
53152;DHT22;39234;53.158;6.322;2023-06-14T13:51:55;24.90;97.10
53152;DHT22;39234;53.158;6.322;2023-06-14T13:54:21;24.80;96.40
53152;DHT22;39234;53.158;6.322;2023-06-14T13:56:46;24.80;97.10
53152;DHT22;39234;53.158;6.322;2023-06-14T13:59:12;24.70;96.70
53152;DHT22;39234;53.158;6.322;2023-06-14T14:01:39;24.70;97.00
53152;DHT22;39234;53.158;6.322;2023-06-14T14:04:04;24.40;97.40
53152;DHT22;39234;53.158;6.322;2023-06-14T14:06:30;24.50;97.50
53152;DHT22;39234;53.158;6.322;2023-06-14T14:08:57;24.80;97.50
53152;DHT22;39234;53.158;6.322;2023-06-14T14:11:23;24.90;97.40
53152;DHT22;39234;53.158;6.322;2023-06-14T14:13:48;24.90;96.80
53152;DHT22;39234;53.158;6.322;2023-06-14T14:16:15;25.10;96.80
53152;DHT22;39234;53.158;6.322;2023-06-14T14:18:40;25.10;96.70
53152;DHT22;39234;53.158;6.322;2023-06-14T14:21:06;23.50;96.30
53152;DHT22;39234;53.158;6.322;2023-06-14T14:23:32;24.90;96.40
53152;DHT22;39234;53.158;6.322;2023-06-14T14:25:58;25.20;96.60
53152;DHT22;39234;53.158;6.322;2023-06-14T14:28:24;25.20;96.70
53152;DHT22;39234;53.158;6.322;2023-06-14T14:30:50;25.30;97.20
53152;DHT22;39234;53.158;6.322;2023-06-14T14:33:16;25.70;97.20
53152;DHT22;39234;53.158;6.322;2023-06-14T14:35:44;25.60;96.40
53152;DHT22;39234;53.158;6.322;2023-06-14T14:38:14;25.30;95.60
53152;DHT22;39234;53.158;6.322;2023-06-14T14:40:42;25.10;95.60
53152;DHT22;39234;53.158;6.322;2023-06-14T14:43:07;25.10;96.30
53152;DHT22;39234;53.158;6.322;2023-06-14T14:45:33;25.50;96.50
53152;DHT22;39234;53.158;6.322;2023-06-14T14:48:00;25.70;95.70
53152;DHT22;39234;53.158;6.322;2023-06-14T14:50:26;25.10;95.60
53152;DHT22;39234;53.158;6.322;2023-06-14T14:52:52;25.10;96.30
53152;DHT22;39234;53.158;6.322;2023-06-14T14:55:17;24.30;96.60
53152;DHT22;39234;53.158;6.322;2023-06-14T14:57:45;24.30;97.10
53152;DHT22;39234;53.158;6.322;2023-06-14T15:00:12;24.30;97.40
53152;DHT22;39234;53.158;6.322;2023-06-14T15:02:38;24.50;97.40
53152;DHT22;39234;53.158;6.322;2023-06-14T15:05:04;24.70;96.90
53152;DHT22;39234;53.158;6.322;2023-06-14T15:07:31;24.80;96.40
53152;DHT22;39234;53.158;6.322;2023-06-14T15:09:57;24.50;96.60
53152;DHT22;39234;53.158;6.322;2023-06-14T15:12:23;24.40;96.60
53152;DHT22;39234;53.158;6.322;2023-06-14T15:14:52;24.40;96.90
53152;DHT22;39234;53.158;6.322;2023-06-14T15:17:21;24.20;96.20
53152;DHT22;39234;53.158;6.322;2023-06-14T15:19:48;24.30;96.60
53152;DHT22;39234;53.158;6.322;2023-06-14T15:22:14;22.30;96.30
53152;DHT22;39234;53.158;6.322;2023-06-14T15:24:43;24.50;96.70
53152;DHT22;39234;53.158;6.322;2023-06-14T15:27:10;24.80;96.70
53152;DHT22;39234;53.158;6.322;2023-06-14T15:29:38;25.10;96.90
53152;DHT22;39234;53.158;6.322;2023-06-14T15:32:05;25.30;96.70
53152;DHT22;39234;53.158;6.322;2023-06-14T15:34:32;25.60;95.80
53152;DHT22;39234;53.158;6.322;2023-06-14T15:36:58;24.90;95.70
53152;DHT22;39234;53.158;6.322;2023-06-14T15:39:23;24.60;96.00
53152;DHT22;39234;53.158;6.322;2023-06-14T15:41:50;24.00;96.40
53152;DHT22;39234;53.158;6.322;2023-06-14T15:44:17;23.80;96.80